createdAt,value
2017-11-23T00:01:16.916Z,10.27
2017-11-23T00:03:46.375Z,10.00
2017-11-23T00:06:27.652Z,10.00
2017-11-23T00:08:58.545Z,10.50
2017-11-23T00:11:28.384Z,9.83
2017-11-23T00:14:06.633Z,10.30
2017-11-23T00:16:49.771Z,10.60
2017-11-23T00:21:56.976Z,11.57
2017-11-23T00:24:29.382Z,10.40
2017-11-23T00:26:58.866Z,11.27
2017-11-23T00:32:02.823Z,10.73
2017-11-23T00:34:39.744Z,10.73
2017-11-23T00:37:09.274Z,10.20
2017-11-23T00:39:40.230Z,10.83
2017-11-23T00:42:09.899Z,11.30
2017-11-23T00:44:44.326Z,10.57
2017-11-23T00:49:48.186Z,11.83
2017-11-23T00:52:17.551Z,12.73
2017-11-23T00:54:47.469Z,11.40
2017-11-23T00:57:16.602Z,11.13
2017-11-23T00:59:53.453Z,11.33
2017-11-23T01:02:25.588Z,11.83
2017-11-23T01:04:57.089Z,12.23
2017-11-23T01:07:47.885Z,10.40
2017-11-23T01:10:18.193Z,11.63
2017-11-23T01:12:48.750Z,13.10
2017-11-23T01:15:32.909Z,10.90
2017-11-23T01:18:18.834Z,11.07
2017-11-23T01:20:50.103Z,11.90
2017-11-23T01:23:20.094Z,11.53
2017-11-23T01:25:50.129Z,11.60
2017-11-23T01:28:20.089Z,9.87
2017-11-23T01:30:51.077Z,10.20
2017-11-23T01:33:21.130Z,13.53
2017-11-23T01:36:05.264Z,11.20
2017-11-23T01:38:35.214Z,10.80
2017-11-23T01:41:12.385Z,11.10
2017-11-23T01:43:41.452Z,11.47
2017-11-23T01:46:11.729Z,12.07
2017-11-23T01:48:41.701Z,11.17
2017-11-23T01:51:13.398Z,11.67
2017-11-23T01:53:43.124Z,13.30
2017-11-23T01:56:13.110Z,11.60
2017-11-23T02:02:00.050Z,11.27
2017-11-23T02:04:36.622Z,10.97
2017-11-23T02:07:07.673Z,10.80
2017-11-23T02:09:37.560Z,10.30
2017-11-23T02:12:07.112Z,10.70
2017-11-23T02:14:36.584Z,10.57
2017-11-23T02:17:11.417Z,10.40
2017-11-23T02:19:40.577Z,10.10
2017-11-23T02:22:24.673Z,12.70
2017-11-23T02:24:54.992Z,10.70
2017-11-23T02:27:24.928Z,10.27
2017-11-23T02:29:54.081Z,9.63
2017-11-23T02:32:23.627Z,9.90
2017-11-23T02:35:01.171Z,9.33
2017-11-23T02:37:30.511Z,9.13
2017-11-23T02:39:59.646Z,9.53
2017-11-23T02:42:30.728Z,10.00
2017-11-23T02:45:00.745Z,9.67
2017-11-23T02:47:31.125Z,9.87
2017-11-23T02:50:01.094Z,10.03
2017-11-23T02:52:32.225Z,9.90
2017-11-23T02:57:36.392Z,9.60
2017-11-23T03:00:13.904Z,9.37
2017-11-23T03:02:43.372Z,9.30
2017-11-23T03:05:18.925Z,10.33
2017-11-23T03:07:48.178Z,9.70
2017-11-23T03:10:18.153Z,8.97
2017-11-23T03:12:47.497Z,8.47
2017-11-23T03:15:21.076Z,10.40
2017-11-23T03:17:51.280Z,9.60
2017-11-23T03:20:20.468Z,9.03
2017-11-23T03:23:03.195Z,9.07
2017-11-23T03:25:32.664Z,9.53
2017-11-23T03:28:18.361Z,8.90
2017-11-23T03:30:50.033Z,9.30
2017-11-23T03:33:19.646Z,8.77
2017-11-23T03:35:49.205Z,9.83
2017-11-23T03:38:18.870Z,10.53
2017-11-23T03:40:48.368Z,9.97
2017-11-23T03:43:18.249Z,10.23
2017-11-23T03:45:47.725Z,7.93
2017-11-23T03:48:24.040Z,7.90
2017-11-23T03:50:53.532Z,7.40
2017-11-23T03:53:23.482Z,6.90
2017-11-23T03:55:52.616Z,7.70
2017-11-23T03:58:21.687Z,6.40
2017-11-23T04:01:05.593Z,7.77
2017-11-23T04:03:35.924Z,11.20
2017-11-23T04:06:05.015Z,10.73
2017-11-23T04:08:34.515Z,10.10
2017-11-23T04:11:06.052Z,8.93
2017-11-23T04:13:39.445Z,8.93
2017-11-23T04:16:08.599Z,9.53
2017-11-23T04:18:38.024Z,9.37
2017-11-23T04:21:07.095Z,10.83
2017-11-23T04:23:37.067Z,11.57
2017-11-23T04:26:06.236Z,10.03
2017-11-23T04:28:35.708Z,10.07
2017-11-23T04:31:26.427Z,11.63
2017-11-23T04:33:57.210Z,15.00
2017-11-23T04:36:26.685Z,12.50
2017-11-23T04:38:56.108Z,12.17
2017-11-23T04:41:26.698Z,11.00
2017-11-23T04:43:56.658Z,11.10
2017-11-23T04:46:27.471Z,11.40
2017-11-23T04:48:56.604Z,11.80
2017-11-23T04:53:59.866Z,12.00
2017-11-23T04:56:29.682Z,10.73
2017-11-23T04:58:58.751Z,9.63
2017-11-23T05:01:33.721Z,9.33
2017-11-23T05:04:02.760Z,8.87
2017-11-23T05:06:32.898Z,7.40
2017-11-23T05:09:03.209Z,8.40
2017-11-23T05:11:32.591Z,8.07
2017-11-23T05:14:07.864Z,8.67
2017-11-23T05:16:37.689Z,9.20
2017-11-23T05:19:06.733Z,11.93
2017-11-23T05:21:36.181Z,14.60
2017-11-23T05:24:05.285Z,15.47
2017-11-23T05:29:22.367Z,14.10
2017-11-23T05:31:51.781Z,13.47
2017-11-23T05:34:21.269Z,15.63
2017-11-23T05:36:55.671Z,12.90
2017-11-23T05:39:24.744Z,14.33
2017-11-23T05:41:54.310Z,11.70
2017-11-23T05:44:23.345Z,12.40
2017-11-23T05:46:52.410Z,12.17
2017-11-23T05:49:21.485Z,13.03
2017-11-23T05:51:57.060Z,13.73
2017-11-23T05:54:26.135Z,10.93
2017-11-23T05:56:56.137Z,10.23
2017-11-23T05:59:25.183Z,9.50
2017-11-23T06:01:54.232Z,9.70
2017-11-23T06:04:23.274Z,8.30
2017-11-23T06:06:59.799Z,9.50
2017-11-23T06:09:35.846Z,8.50
2017-11-23T06:12:04.912Z,8.80
2017-11-23T06:14:33.934Z,10.40
2017-11-23T06:17:13.885Z,9.23
2017-11-23T06:19:42.905Z,8.80
2017-11-23T06:22:11.949Z,8.57
2017-11-23T06:24:41.239Z,9.27
2017-11-23T06:27:23.001Z,8.67
2017-11-23T06:29:58.066Z,9.63
2017-11-23T06:32:27.092Z,9.50
2017-11-23T06:34:56.155Z,8.13
2017-11-23T06:37:25.197Z,8.17
2017-11-23T06:40:02.319Z,9.60
2017-11-23T06:42:31.386Z,9.33
2017-11-23T06:45:00.715Z,10.17
2017-11-23T06:47:37.312Z,9.20
2017-11-23T06:50:07.177Z,9.50
2017-11-23T06:52:36.232Z,9.10
2017-11-23T06:55:11.638Z,10.10
2017-11-23T06:57:44.243Z,8.50
2017-11-23T07:00:13.281Z,8.00
2017-11-23T07:02:52.891Z,8.97
2017-11-23T07:05:22.068Z,10.13
2017-11-23T07:07:51.558Z,8.13
2017-11-23T07:10:20.949Z,9.30
2017-11-23T07:12:50.447Z,8.40
2017-11-23T07:15:19.887Z,8.00
2017-11-23T07:17:54.679Z,8.43
2017-11-23T07:20:23.830Z,7.23
2017-11-23T07:22:52.979Z,7.00
2017-11-23T07:25:22.150Z,6.90
2017-11-23T07:27:51.495Z,7.30
2017-11-23T07:30:20.544Z,6.83
2017-11-23T07:32:50.788Z,6.20
2017-11-23T07:35:33.436Z,7.23
2017-11-23T07:38:02.473Z,6.40
2017-11-23T07:40:35.286Z,6.93
2017-11-23T07:43:18.565Z,6.83
2017-11-23T07:45:47.866Z,6.20
2017-11-23T07:48:16.909Z,6.60
2017-11-23T07:50:47.742Z,6.57
2017-11-23T07:53:16.813Z,5.83
2017-11-23T07:55:46.666Z,6.33
2017-11-23T07:58:16.019Z,6.40
2017-11-23T08:00:48.122Z,6.60
2017-11-23T08:03:18.490Z,6.30
2017-11-23T08:05:47.601Z,6.50
2017-11-23T08:08:16.700Z,8.00
2017-11-23T08:10:45.952Z,5.97
2017-11-23T08:13:15.031Z,6.53
2017-11-23T08:15:45.396Z,6.07
2017-11-23T08:18:14.474Z,7.13
2017-11-23T08:20:43.982Z,6.93
2017-11-23T08:23:13.110Z,5.83
2017-11-23T08:25:46.164Z,5.87
2017-11-23T08:28:15.230Z,6.07
2017-11-23T08:30:44.270Z,7.30
2017-11-23T08:33:13.339Z,6.37
2017-11-23T08:35:42.384Z,6.33
2017-11-23T08:38:11.447Z,5.70
2017-11-23T08:40:40.531Z,6.67
2017-11-23T08:43:09.593Z,6.60
2017-11-23T08:45:49.872Z,5.80
2017-11-23T08:48:19.357Z,6.03
2017-11-23T08:50:48.437Z,6.17
2017-11-23T08:53:17.508Z,6.00
2017-11-23T08:55:52.644Z,5.40
2017-11-23T08:58:21.716Z,6.10
2017-11-23T09:00:54.079Z,5.20
2017-11-23T09:03:23.157Z,5.67
2017-11-23T09:05:52.206Z,6.03
2017-11-23T09:08:25.109Z,5.77
2017-11-23T09:10:54.197Z,4.60
2017-11-23T09:13:31.443Z,5.50
2017-11-23T09:16:00.505Z,5.07
2017-11-23T09:18:30.008Z,4.60
2017-11-23T09:20:59.052Z,4.73
2017-11-23T09:23:28.837Z,5.27
2017-11-23T09:25:58.864Z,5.37
2017-11-23T09:28:27.920Z,4.97
2017-11-23T09:30:56.980Z,5.60
2017-11-23T09:33:26.072Z,5.40
2017-11-23T09:35:55.100Z,4.77
2017-11-23T09:38:24.133Z,5.20
2017-11-23T09:40:53.342Z,5.20
2017-11-23T09:43:23.157Z,5.07
2017-11-23T09:45:52.205Z,4.30
2017-11-23T09:48:21.311Z,5.83
2017-11-23T09:50:51.140Z,5.47
2017-11-23T09:53:20.497Z,5.47
2017-11-23T09:55:49.545Z,4.87
2017-11-23T09:58:18.573Z,5.70
2017-11-23T10:00:47.652Z,5.43
2017-11-23T10:03:16.735Z,4.70
2017-11-23T10:05:51.756Z,6.73
2017-11-23T10:08:20.824Z,5.17
2017-11-23T10:10:49.908Z,5.00
2017-11-23T10:13:19.274Z,5.77
2017-11-23T10:15:48.337Z,5.13
2017-11-23T10:18:18.000Z,5.60
2017-11-23T10:20:47.060Z,5.80
2017-11-23T10:23:19.110Z,5.27
2017-11-23T10:25:48.223Z,5.00
2017-11-23T10:28:17.271Z,4.33
2017-11-23T10:30:46.342Z,5.30
2017-11-23T10:33:15.390Z,4.80
2017-11-23T10:35:52.153Z,4.57
2017-11-23T10:38:21.211Z,4.80
2017-11-23T10:40:50.292Z,5.47
2017-11-23T10:43:27.893Z,4.97
2017-11-23T10:45:57.182Z,4.80
2017-11-23T10:48:32.091Z,5.47
2017-11-23T10:51:01.182Z,4.60
2017-11-23T10:53:30.212Z,5.27
2017-11-23T10:56:12.015Z,6.00
2017-11-23T10:58:41.048Z,7.10
2017-11-23T11:01:10.338Z,6.57
2017-11-23T11:03:39.433Z,7.43
2017-11-23T11:06:08.526Z,7.10
2017-11-23T11:08:37.543Z,9.30
2017-11-23T11:11:13.878Z,8.67
2017-11-23T11:13:42.980Z,8.47
2017-11-23T11:16:12.036Z,9.00
2017-11-23T11:18:41.077Z,7.90
2017-11-23T11:21:10.566Z,6.43
2017-11-23T11:23:46.064Z,6.13
2017-11-23T11:26:15.352Z,6.23
2017-11-23T11:28:44.752Z,6.10
2017-11-23T11:31:14.698Z,6.20
2017-11-23T11:33:43.788Z,6.10
2017-11-23T11:36:12.845Z,6.80
2017-11-23T11:38:42.423Z,6.60
2017-11-23T11:41:11.454Z,5.30
2017-11-23T11:43:40.754Z,6.60
2017-11-23T11:46:09.994Z,6.43
2017-11-23T11:48:42.191Z,6.17
2017-11-23T11:51:11.292Z,7.63
2017-11-23T11:53:40.353Z,6.53
2017-11-23T11:56:09.385Z,6.80
2017-11-23T11:58:38.392Z,6.50
2017-11-23T12:01:07.832Z,6.37
2017-11-23T12:03:44.660Z,5.37
2017-11-23T12:06:13.756Z,6.00
2017-11-23T12:08:42.838Z,6.20
2017-11-23T12:11:19.636Z,6.33
2017-11-23T12:13:54.406Z,6.00
2017-11-23T12:16:26.502Z,5.97
2017-11-23T12:19:01.406Z,6.63
2017-11-23T12:21:36.164Z,5.93
2017-11-23T12:24:11.294Z,6.70
2017-11-23T12:26:40.382Z,6.60
2017-11-23T12:29:15.311Z,6.00
2017-11-23T12:31:44.365Z,6.37
2017-11-23T12:34:13.737Z,5.87
2017-11-23T12:36:50.130Z,6.67
2017-11-23T12:39:23.401Z,6.30
2017-11-23T12:41:53.628Z,8.00
2017-11-23T12:44:22.641Z,6.17
2017-11-23T12:46:51.687Z,7.20
2017-11-23T12:49:21.053Z,6.77
2017-11-23T12:51:50.091Z,6.37
2017-11-23T12:54:19.127Z,6.07
2017-11-23T12:56:48.213Z,7.30
2017-11-23T12:59:17.219Z,7.10
2017-11-23T13:01:46.850Z,6.60
2017-11-23T13:04:16.126Z,6.30
2017-11-23T13:06:45.216Z,7.80
2017-11-23T13:09:14.268Z,7.77
2017-11-23T13:11:43.305Z,7.00
2017-11-23T13:14:12.357Z,7.40
2017-11-23T13:16:41.681Z,7.23
2017-11-23T13:19:10.739Z,7.23
2017-11-23T13:21:39.867Z,7.40
2017-11-23T13:24:08.956Z,7.10
2017-11-23T13:26:37.996Z,6.90
2017-11-23T13:29:07.292Z,7.50
2017-11-23T13:31:36.343Z,7.10
2017-11-23T13:34:11.762Z,7.37
2017-11-23T13:36:40.797Z,7.70
2017-11-23T13:39:09.865Z,7.63
2017-11-23T13:41:38.919Z,8.10
2017-11-23T13:44:07.979Z,7.00
2017-11-23T13:46:36.999Z,7.53
2017-11-23T13:49:06.075Z,7.37
2017-11-23T13:51:35.124Z,7.27
2017-11-23T13:54:04.233Z,8.07
2017-11-23T13:56:33.263Z,7.27
2017-11-23T13:59:02.323Z,7.33
2017-11-23T14:01:37.596Z,7.57
2017-11-23T14:04:06.700Z,6.87
2017-11-23T14:06:35.783Z,7.40
2017-11-23T14:09:04.892Z,6.90
2017-11-23T14:11:33.950Z,7.00
2017-11-23T14:14:06.488Z,8.00
2017-11-23T14:16:35.561Z,6.90
2017-11-23T14:19:04.632Z,7.07
2017-11-23T14:21:33.688Z,6.60
2017-11-23T14:24:02.729Z,6.90
2017-11-23T14:26:31.740Z,7.07
2017-11-23T14:29:00.827Z,6.73
2017-11-23T14:31:35.901Z,7.10
2017-11-23T14:34:04.996Z,6.57
2017-11-23T14:36:34.304Z,7.00
2017-11-23T14:39:09.420Z,7.30
2017-11-23T14:41:38.478Z,5.73
2017-11-23T14:44:07.554Z,6.70
2017-11-23T14:46:36.600Z,7.00
2017-11-23T14:49:05.681Z,6.17
2017-11-23T14:51:34.722Z,6.57
2017-11-23T14:54:03.785Z,6.10
2017-11-23T14:56:32.862Z,6.30
2017-11-23T14:59:01.881Z,6.90
2017-11-23T15:01:30.945Z,7.63
2017-11-23T15:04:00.023Z,7.30
2017-11-23T15:06:35.328Z,6.33
2017-11-23T15:09:04.401Z,6.50
2017-11-23T15:11:33.476Z,6.77
2017-11-23T15:14:02.819Z,6.33
2017-11-23T15:16:31.871Z,7.10
2017-11-23T15:19:10.769Z,5.67
2017-11-23T15:21:39.814Z,6.77
2017-11-23T15:24:08.837Z,7.13
2017-11-23T15:26:37.896Z,6.97
2017-11-23T15:29:07.207Z,6.93
2017-11-23T15:31:36.237Z,7.50
2017-11-23T15:34:05.333Z,7.03
2017-11-23T15:36:34.988Z,7.03
2017-11-23T15:39:05.054Z,7.57
2017-11-23T15:41:35.805Z,6.90
2017-11-23T15:44:04.901Z,8.40
2017-11-23T15:46:41.385Z,7.93
2017-11-23T15:49:10.428Z,8.80
2017-11-23T15:51:40.309Z,9.37
2017-11-23T15:54:09.377Z,8.20
2017-11-23T15:56:38.689Z,10.80
2017-11-23T15:59:07.729Z,10.20
2017-11-23T16:01:36.797Z,10.30
2017-11-23T16:04:21.265Z,10.53
2017-11-23T16:06:50.305Z,9.57
2017-11-23T16:09:19.324Z,9.30
2017-11-23T16:11:48.399Z,10.63
2017-11-23T16:14:30.718Z,9.43
2017-11-23T16:17:10.605Z,7.63
2017-11-23T16:19:42.667Z,8.40
2017-11-23T16:22:12.765Z,8.43
2017-11-23T16:24:42.028Z,7.87
2017-11-23T16:27:11.085Z,9.87
2017-11-23T16:29:40.238Z,8.97
2017-11-23T16:32:09.376Z,10.70
2017-11-23T16:34:38.486Z,10.73
2017-11-23T16:37:12.224Z,8.90
2017-11-23T16:39:41.347Z,9.47
2017-11-23T16:42:20.538Z,8.73
2017-11-23T16:44:55.214Z,9.17
2017-11-23T16:47:30.572Z,11.27
2017-11-23T16:50:20.490Z,10.40
2017-11-23T16:52:55.404Z,8.97
2017-11-23T16:55:42.212Z,10.70
2017-11-23T16:58:31.111Z,11.70
2017-11-23T17:01:05.341Z,13.33
2017-11-23T17:03:40.037Z,12.20
2017-11-23T17:06:16.671Z,11.47
2017-11-23T17:08:52.088Z,13.37
2017-11-23T17:11:26.903Z,15.37
2017-11-23T17:14:07.721Z,12.93
2017-11-23T17:16:43.562Z,13.57
2017-11-23T17:19:28.749Z,15.83
2017-11-23T17:21:58.103Z,13.27
2017-11-23T17:24:28.065Z,14.50
2017-11-23T17:26:57.439Z,14.50
2017-11-23T17:29:26.488Z,15.53
2017-11-23T17:31:55.559Z,15.90
2017-11-23T17:34:24.843Z,16.50
2017-11-23T17:36:53.988Z,16.30
2017-11-23T17:39:23.308Z,18.40
2017-11-23T17:41:52.324Z,21.97
2017-11-23T17:44:23.034Z,20.10
2017-11-23T17:46:52.101Z,17.80
2017-11-23T17:49:34.456Z,21.23
2017-11-23T17:52:03.876Z,20.80
2017-11-23T17:54:40.509Z,19.60
2017-11-23T17:57:09.513Z,22.97
2017-11-23T17:59:41.325Z,21.40
2017-11-23T18:02:10.719Z,22.50
2017-11-23T18:04:40.024Z,24.33
2017-11-23T18:07:09.296Z,22.47
2017-11-23T18:09:38.380Z,25.97
2017-11-23T18:12:08.880Z,23.57
2017-11-23T18:14:38.177Z,23.30
2017-11-23T18:17:07.414Z,24.37
2017-11-23T18:19:36.676Z,23.27
2017-11-23T18:22:19.322Z,21.70
2017-11-23T18:24:48.520Z,24.30
2017-11-23T18:27:18.453Z,23.03
2017-11-23T18:29:54.468Z,23.33
2017-11-23T18:32:23.692Z,23.50
2017-11-23T18:35:00.215Z,21.87
2017-11-23T18:37:29.285Z,22.80
2017-11-23T18:39:58.582Z,20.67
2017-11-23T18:42:30.932Z,21.47
2017-11-23T18:45:00.129Z,22.20
2017-11-23T18:47:29.441Z,24.10
2017-11-23T18:49:58.680Z,24.53
2017-11-23T18:52:27.765Z,24.13
2017-11-23T18:54:57.011Z,23.10
2017-11-23T18:57:26.268Z,22.77
2017-11-23T18:59:56.774Z,23.90
2017-11-23T19:02:25.836Z,21.90
2017-11-23T19:04:54.953Z,24.07
2017-11-23T19:07:24.011Z,23.03
2017-11-23T19:09:53.075Z,23.73
2017-11-23T19:12:24.333Z,23.93
2017-11-23T19:14:53.566Z,21.53
2017-11-23T19:17:22.657Z,24.10
2017-11-23T19:19:51.723Z,25.37
2017-11-23T19:22:21.067Z,24.77
2017-11-23T19:24:50.339Z,23.20
2017-11-23T19:27:19.645Z,22.43
2017-11-23T19:29:48.771Z,24.40
2017-11-23T19:32:18.080Z,25.07
2017-11-23T19:34:47.336Z,22.17
2017-11-23T19:37:16.412Z,27.07
2017-11-23T19:39:57.520Z,25.83
2017-11-23T19:42:26.600Z,26.40
2017-11-23T19:44:55.644Z,27.07
2017-11-23T19:47:31.981Z,28.10
2017-11-23T19:50:01.021Z,29.97
2017-11-23T19:52:30.074Z,28.17
2017-11-23T19:54:59.119Z,30.20
2017-11-23T19:57:29.929Z,27.27
2017-11-23T19:59:58.945Z,33.13
2017-11-23T20:02:28.145Z,32.20
2017-11-23T20:04:57.400Z,30.43
2017-11-23T20:07:26.676Z,29.30
2017-11-23T20:09:55.694Z,31.53
2017-11-23T20:12:28.417Z,28.70
2017-11-23T20:14:57.997Z,34.10
2017-11-23T20:17:27.069Z,35.00
2017-11-23T20:19:56.119Z,33.10
2017-11-23T20:22:25.206Z,33.90
2017-11-23T20:24:54.248Z,33.20
2017-11-23T20:27:23.250Z,32.87
2017-11-23T20:29:52.373Z,37.10
2017-11-23T20:32:28.929Z,36.77
2017-11-23T20:35:05.833Z,36.20
2017-11-23T20:37:41.378Z,33.23
2017-11-23T20:40:10.496Z,34.70
2017-11-23T20:42:39.648Z,35.30
2017-11-23T20:45:12.332Z,34.33
2017-11-23T20:47:41.920Z,35.90
2017-11-23T20:50:18.038Z,27.67
2017-11-23T20:52:47.277Z,23.63
2017-11-23T20:55:17.345Z,26.97
2017-11-23T20:57:46.434Z,28.87
2017-11-23T21:00:15.548Z,31.40
2017-11-23T21:02:45.008Z,28.00
2017-11-23T21:05:14.302Z,30.13
2017-11-23T21:07:49.667Z,28.23
2017-11-23T21:10:19.629Z,31.57
2017-11-23T21:13:02.697Z,33.53
2017-11-23T21:15:32.800Z,34.00
2017-11-23T21:18:03.113Z,33.07
2017-11-23T21:20:32.412Z,38.00
2017-11-23T21:23:03.200Z,36.37
2017-11-23T21:25:32.440Z,38.97
2017-11-23T21:28:01.522Z,35.30
2017-11-23T21:30:30.576Z,33.00
2017-11-23T21:32:59.657Z,33.80
2017-11-23T21:35:29.616Z,30.23
2017-11-23T21:37:58.630Z,29.23
2017-11-23T21:40:28.988Z,29.10
2017-11-23T21:42:58.048Z,27.50
2017-11-23T21:45:34.829Z,30.60
2017-11-23T21:48:04.755Z,30.60
2017-11-23T21:50:33.901Z,30.00
2017-11-23T21:53:03.067Z,27.90
2017-11-23T21:55:32.761Z,27.87
2017-11-23T21:58:02.071Z,28.77
2017-11-23T22:00:31.233Z,26.23
2017-11-23T22:03:01.254Z,28.03
2017-11-23T22:05:31.138Z,27.43
2017-11-23T22:08:00.203Z,28.57
2017-11-23T22:10:29.216Z,26.83
2017-11-23T22:12:58.283Z,28.70
2017-11-23T22:15:33.915Z,28.73
2017-11-23T22:18:03.014Z,28.03
2017-11-23T22:20:32.120Z,26.07
2017-11-23T22:23:02.644Z,28.27
2017-11-23T22:25:32.037Z,26.90
2017-11-23T22:28:01.313Z,26.63
2017-11-23T22:30:30.413Z,24.17
2017-11-23T22:32:59.504Z,23.50
2017-11-23T22:35:28.601Z,25.53
2017-11-23T22:37:57.692Z,24.63
2017-11-23T22:40:27.400Z,23.80
2017-11-23T22:42:56.473Z,25.13
2017-11-23T22:45:25.581Z,25.80
2017-11-23T22:47:54.661Z,25.60
2017-11-23T22:50:36.624Z,26.70
2017-11-23T22:53:05.713Z,26.13
2017-11-23T22:55:34.779Z,25.77
2017-11-23T22:58:04.616Z,26.13
2017-11-23T23:00:33.672Z,28.33
2017-11-23T23:03:10.975Z,28.70
2017-11-23T23:05:40.025Z,27.60
2017-11-23T23:08:09.343Z,27.13
2017-11-23T23:10:38.441Z,26.73
2017-11-23T23:13:11.531Z,27.43
2017-11-23T23:15:40.706Z,29.10
2017-11-23T23:18:09.779Z,30.93
2017-11-23T23:20:39.087Z,28.10
2017-11-23T23:23:14.406Z,30.63
2017-11-23T23:25:43.445Z,25.87
2017-11-23T23:28:12.462Z,34.67
2017-11-23T23:30:41.523Z,30.47
2017-11-23T23:33:10.596Z,29.97
2017-11-23T23:35:39.641Z,32.13
2017-11-23T23:38:08.723Z,25.87
2017-11-23T23:40:38.434Z,23.10
2017-11-23T23:43:08.353Z,24.57
2017-11-23T23:45:37.734Z,27.33
2017-11-23T23:48:06.900Z,27.87
2017-11-23T23:50:36.083Z,21.50
2017-11-23T23:53:05.143Z,30.90
2017-11-23T23:55:34.499Z,26.33
2017-11-23T23:58:03.564Z,24.87
